sensor_id;sensor_type;location;lat;lon;timestamp;P1;durP1;ratioP1;P2;durP2;ratioP2
13250;SDS011;6692;50.710;7.180;2023-04-04T00:01:57;3.10;;;2.60;;
13250;SDS011;6692;50.710;7.180;2023-04-04T00:03:58;3.03;;;2.70;;
13250;SDS011;6692;50.710;7.180;2023-04-04T00:05:59;3.07;;;2.67;;
13250;SDS011;6692;50.710;7.180;2023-04-04T00:07:59;3.97;;;3.07;;
13250;SDS011;6692;50.710;7.180;2023-04-04T00:10:00;3.43;;;3.10;;
13250;SDS011;6692;50.710;7.180;2023-04-04T00:12:01;3.60;;;3.30;;
13250;SDS011;6692;50.710;7.180;2023-04-04T00:14:02;2.95;;;2.75;;
13250;SDS011;6692;50.710;7.180;2023-04-04T00:16:03;3.07;;;2.87;;
13250;SDS011;6692;50.710;7.180;2023-04-04T00:18:04;3.30;;;3.00;;
13250;SDS011;6692;50.710;7.180;2023-04-04T00:20:05;4.80;;;3.07;;
13250;SDS011;6692;50.710;7.180;2023-04-04T00:22:07;4.37;;;3.20;;
13250;SDS011;6692;50.710;7.180;2023-04-04T00:24:07;3.10;;;2.77;;
13250;SDS011;6692;50.710;7.180;2023-04-04T00:26:08;3.17;;;2.93;;
13250;SDS011;6692;50.710;7.180;2023-04-04T00:28:09;3.47;;;3.17;;
13250;SDS011;6692;50.710;7.180;2023-04-04T00:30:10;2.83;;;2.53;;
13250;SDS011;6692;50.710;7.180;2023-04-04T00:32:12;4.70;;;3.10;;
13250;SDS011;6692;50.710;7.180;2023-04-04T00:34:12;4.53;;;3.63;;
13250;SDS011;6692;50.710;7.180;2023-04-04T00:36:13;2.63;;;2.43;;
13250;SDS011;6692;50.710;7.180;2023-04-04T00:38:15;3.73;;;2.97;;
13250;SDS011;6692;50.710;7.180;2023-04-04T00:40:15;3.37;;;2.62;;
13250;SDS011;6692;50.710;7.180;2023-04-04T00:42:16;3.63;;;3.00;;
13250;SDS011;6692;50.710;7.180;2023-04-04T00:44:17;3.13;;;2.83;;
13250;SDS011;6692;50.710;7.180;2023-04-04T00:46:17;3.10;;;2.80;;
13250;SDS011;6692;50.710;7.180;2023-04-04T00:48:19;2.87;;;2.60;;
13250;SDS011;6692;50.710;7.180;2023-04-04T00:50:19;3.72;;;3.03;;
13250;SDS011;6692;50.710;7.180;2023-04-04T00:52:20;3.63;;;3.00;;
13250;SDS011;6692;50.710;7.180;2023-04-04T00:54:21;3.20;;;2.93;;
13250;SDS011;6692;50.710;7.180;2023-04-04T00:56:22;3.10;;;2.80;;
13250;SDS011;6692;50.710;7.180;2023-04-04T00:58:22;3.50;;;3.20;;
13250;SDS011;6692;50.710;7.180;2023-04-04T01:00:23;3.20;;;2.70;;
13250;SDS011;6692;50.710;7.180;2023-04-04T01:02:24;3.33;;;2.87;;
13250;SDS011;6692;50.710;7.180;2023-04-04T01:04:24;3.27;;;2.87;;
13250;SDS011;6692;50.710;7.180;2023-04-04T01:06:25;2.80;;;2.50;;
13250;SDS011;6692;50.710;7.180;2023-04-04T01:08:26;2.90;;;2.40;;
13250;SDS011;6692;50.710;7.180;2023-04-04T01:10:28;2.83;;;2.55;;
13250;SDS011;6692;50.710;7.180;2023-04-04T01:12:28;2.60;;;2.40;;
13250;SDS011;6692;50.710;7.180;2023-04-04T01:14:28;3.23;;;2.37;;
13250;SDS011;6692;50.710;7.180;2023-04-04T01:16:29;2.70;;;2.30;;
13250;SDS011;6692;50.710;7.180;2023-04-04T01:18:30;2.77;;;2.57;;
13250;SDS011;6692;50.710;7.180;2023-04-04T01:20:31;3.23;;;2.27;;
13250;SDS011;6692;50.710;7.180;2023-04-04T01:22:32;3.37;;;2.77;;
13250;SDS011;6692;50.710;7.180;2023-04-04T01:24:33;3.15;;;2.85;;
13250;SDS011;6692;50.710;7.180;2023-04-04T01:26:33;3.23;;;2.93;;
13250;SDS011;6692;50.710;7.180;2023-04-04T01:28:35;3.20;;;2.87;;
13250;SDS011;6692;50.710;7.180;2023-04-04T01:30:36;3.15;;;2.28;;
13250;SDS011;6692;50.710;7.180;2023-04-04T01:32:41;2.80;;;2.50;;
13250;SDS011;6692;50.710;7.180;2023-04-04T01:34:43;2.53;;;2.33;;
13250;SDS011;6692;50.710;7.180;2023-04-04T01:36:53;3.05;;;2.83;;
13250;SDS011;6692;50.710;7.180;2023-04-04T01:38:58;2.90;;;2.60;;
13250;SDS011;6692;50.710;7.180;2023-04-04T01:41:01;2.40;;;2.20;;
13250;SDS011;6692;50.710;7.180;2023-04-04T01:43:01;2.28;;;2.08;;
13250;SDS011;6692;50.710;7.180;2023-04-04T01:45:01;2.63;;;2.43;;
13250;SDS011;6692;50.710;7.180;2023-04-04T01:47:04;3.80;;;2.60;;
13250;SDS011;6692;50.710;7.180;2023-04-04T01:49:03;3.03;;;2.20;;
13250;SDS011;6692;50.710;7.180;2023-04-04T01:51:05;2.63;;;2.43;;
13250;SDS011;6692;50.710;7.180;2023-04-04T01:53:05;3.00;;;2.58;;
13250;SDS011;6692;50.710;7.180;2023-04-04T01:55:06;3.30;;;2.47;;
13250;SDS011;6692;50.710;7.180;2023-04-04T01:57:07;3.00;;;2.37;;
13250;SDS011;6692;50.710;7.180;2023-04-04T01:59:08;4.53;;;2.90;;
13250;SDS011;6692;50.710;7.180;2023-04-04T02:01:09;3.20;;;2.50;;
13250;SDS011;6692;50.710;7.180;2023-04-04T02:03:09;2.40;;;2.20;;
13250;SDS011;6692;50.710;7.180;2023-04-04T02:05:11;2.73;;;2.53;;
13250;SDS011;6692;50.710;7.180;2023-04-04T02:07:11;3.22;;;2.92;;
13250;SDS011;6692;50.710;7.180;2023-04-04T02:09:12;2.80;;;2.60;;
13250;SDS011;6692;50.710;7.180;2023-04-04T02:11:13;2.30;;;2.10;;
13250;SDS011;6692;50.710;7.180;2023-04-04T02:13:14;2.93;;;2.50;;
13250;SDS011;6692;50.710;7.180;2023-04-04T02:15:16;3.20;;;2.78;;
13250;SDS011;6692;50.710;7.180;2023-04-04T02:17:16;3.37;;;2.62;;
13250;SDS011;6692;50.710;7.180;2023-04-04T02:19:17;3.27;;;2.80;;
13250;SDS011;6692;50.710;7.180;2023-04-04T02:21:18;2.73;;;2.50;;
13250;SDS011;6692;50.710;7.180;2023-04-04T02:23:19;2.77;;;2.57;;
13250;SDS011;6692;50.710;7.180;2023-04-04T02:25:20;3.10;;;2.72;;
13250;SDS011;6692;50.710;7.180;2023-04-04T02:27:21;3.45;;;2.85;;
13250;SDS011;6692;50.710;7.180;2023-04-04T02:29:22;2.83;;;2.63;;
13250;SDS011;6692;50.710;7.180;2023-04-04T02:31:23;4.27;;;2.70;;
13250;SDS011;6692;50.710;7.180;2023-04-04T02:33:24;3.33;;;3.03;;
13250;SDS011;6692;50.710;7.180;2023-04-04T02:35:25;3.07;;;2.73;;
13250;SDS011;6692;50.710;7.180;2023-04-04T02:37:25;3.60;;;3.30;;
13250;SDS011;6692;50.710;7.180;2023-04-04T02:39:26;3.40;;;3.00;;
13250;SDS011;6692;50.710;7.180;2023-04-04T02:41:27;3.03;;;2.80;;
13250;SDS011;6692;50.710;7.180;2023-04-04T02:43:27;3.10;;;2.80;;
13250;SDS011;6692;50.710;7.180;2023-04-04T02:45:28;3.03;;;2.73;;
13250;SDS011;6692;50.710;7.180;2023-04-04T02:47:29;3.47;;;2.70;;
13250;SDS011;6692;50.710;7.180;2023-04-04T02:49:29;3.23;;;2.70;;
13250;SDS011;6692;50.710;7.180;2023-04-04T02:51:30;3.53;;;3.20;;
13250;SDS011;6692;50.710;7.180;2023-04-04T02:53:31;3.33;;;3.03;;
13250;SDS011;6692;50.710;7.180;2023-04-04T02:55:31;3.40;;;3.10;;
13250;SDS011;6692;50.710;7.180;2023-04-04T02:57:32;4.00;;;3.53;;
13250;SDS011;6692;50.710;7.180;2023-04-04T02:59:33;3.77;;;3.47;;
13250;SDS011;6692;50.710;7.180;2023-04-04T03:01:34;3.70;;;3.00;;
13250;SDS011;6692;50.710;7.180;2023-04-04T03:03:35;3.43;;;3.10;;
13250;SDS011;6692;50.710;7.180;2023-04-04T03:05:35;4.40;;;3.10;;
13250;SDS011;6692;50.710;7.180;2023-04-04T03:07:37;3.13;;;2.83;;
13250;SDS011;6692;50.710;7.180;2023-04-04T03:09:37;3.45;;;3.15;;
13250;SDS011;6692;50.710;7.180;2023-04-04T03:11:38;3.40;;;2.90;;
13250;SDS011;6692;50.710;7.180;2023-04-04T03:13:39;3.43;;;3.03;;
13250;SDS011;6692;50.710;7.180;2023-04-04T03:15:40;3.53;;;3.23;;
13250;SDS011;6692;50.710;7.180;2023-04-04T03:17:40;4.33;;;3.30;;
13250;SDS011;6692;50.710;7.180;2023-04-04T03:19:41;4.07;;;3.43;;
13250;SDS011;6692;50.710;7.180;2023-04-04T03:21:42;3.70;;;3.27;;
13250;SDS011;6692;50.710;7.180;2023-04-04T03:23:42;3.97;;;3.43;;
13250;SDS011;6692;50.710;7.180;2023-04-04T03:25:43;3.50;;;3.20;;
13250;SDS011;6692;50.710;7.180;2023-04-04T03:27:44;5.67;;;3.63;;
13250;SDS011;6692;50.710;7.180;2023-04-04T03:29:44;3.33;;;3.03;;
13250;SDS011;6692;50.710;7.180;2023-04-04T03:31:45;3.70;;;3.10;;
13250;SDS011;6692;50.710;7.180;2023-04-04T03:33:46;4.50;;;3.43;;
13250;SDS011;6692;50.710;7.180;2023-04-04T03:35:47;3.28;;;2.97;;
13250;SDS011;6692;50.710;7.180;2023-04-04T03:37:49;3.83;;;3.40;;
13250;SDS011;6692;50.710;7.180;2023-04-04T03:39:49;3.85;;;3.08;;
13250;SDS011;6692;50.710;7.180;2023-04-04T03:41:51;3.60;;;3.30;;
13250;SDS011;6692;50.710;7.180;2023-04-04T03:43:51;3.50;;;3.20;;
13250;SDS011;6692;50.710;7.180;2023-04-04T03:45:52;2.93;;;2.53;;
13250;SDS011;6692;50.710;7.180;2023-04-04T03:47:53;4.03;;;3.03;;
13250;SDS011;6692;50.710;7.180;2023-04-04T03:49:53;3.20;;;2.80;;
13250;SDS011;6692;50.710;7.180;2023-04-04T03:51:54;3.30;;;3.00;;
13250;SDS011;6692;50.710;7.180;2023-04-04T03:53:55;3.50;;;3.20;;
13250;SDS011;6692;50.710;7.180;2023-04-04T03:55:55;2.90;;;2.70;;
13250;SDS011;6692;50.710;7.180;2023-04-04T03:57:56;2.80;;;2.60;;
13250;SDS011;6692;50.710;7.180;2023-04-04T03:59:57;3.30;;;3.00;;
13250;SDS011;6692;50.710;7.180;2023-04-04T04:01:58;4.20;;;3.20;;
13250;SDS011;6692;50.710;7.180;2023-04-04T04:03:59;3.10;;;2.90;;
13250;SDS011;6692;50.710;7.180;2023-04-04T04:05:59;5.13;;;3.03;;
13250;SDS011;6692;50.710;7.180;2023-04-04T04:08:00;4.23;;;2.67;;
13250;SDS011;6692;50.710;7.180;2023-04-04T04:10:01;3.40;;;2.70;;
13250;SDS011;6692;50.710;7.180;2023-04-04T04:12:02;3.03;;;2.80;;
13250;SDS011;6692;50.710;7.180;2023-04-04T04:14:03;2.90;;;2.70;;
13250;SDS011;6692;50.710;7.180;2023-04-04T04:16:05;3.70;;;2.77;;
13250;SDS011;6692;50.710;7.180;2023-04-04T04:18:06;3.00;;;2.70;;
13250;SDS011;6692;50.710;7.180;2023-04-04T04:20:07;2.80;;;2.60;;
13250;SDS011;6692;50.710;7.180;2023-04-04T04:22:08;2.80;;;2.55;;
13250;SDS011;6692;50.710;7.180;2023-04-04T04:24:09;3.30;;;2.40;;
13250;SDS011;6692;50.710;7.180;2023-04-04T04:26:10;2.90;;;2.60;;
13250;SDS011;6692;50.710;7.180;2023-04-04T04:28:10;2.60;;;2.37;;
13250;SDS011;6692;50.710;7.180;2023-04-04T04:30:11;2.97;;;2.50;;
13250;SDS011;6692;50.710;7.180;2023-04-04T04:32:14;3.10;;;2.57;;
13250;SDS011;6692;50.710;7.180;2023-04-04T04:34:14;2.55;;;2.35;;
13250;SDS011;6692;50.710;7.180;2023-04-04T04:36:15;2.80;;;2.60;;
13250;SDS011;6692;50.710;7.180;2023-04-04T04:38:16;2.80;;;2.50;;
13250;SDS011;6692;50.710;7.180;2023-04-04T04:40:16;2.80;;;2.50;;
13250;SDS011;6692;50.710;7.180;2023-04-04T04:42:17;3.43;;;3.13;;
13250;SDS011;6692;50.710;7.180;2023-04-04T04:44:18;3.03;;;2.73;;
13250;SDS011;6692;50.710;7.180;2023-04-04T04:46:18;3.57;;;3.27;;
13250;SDS011;6692;50.710;7.180;2023-04-04T04:48:19;3.87;;;3.50;;
13250;SDS011;6692;50.710;7.180;2023-04-04T04:50:20;4.53;;;3.60;;
13250;SDS011;6692;50.710;7.180;2023-04-04T04:52:21;4.77;;;3.20;;
13250;SDS011;6692;50.710;7.180;2023-04-04T04:54:22;3.53;;;3.15;;
13250;SDS011;6692;50.710;7.180;2023-04-04T04:56:22;3.87;;;3.03;;
13250;SDS011;6692;50.710;7.180;2023-04-04T04:58:23;3.20;;;2.90;;
13250;SDS011;6692;50.710;7.180;2023-04-04T05:00:24;3.07;;;2.77;;
13250;SDS011;6692;50.710;7.180;2023-04-04T05:02:24;3.30;;;2.90;;
13250;SDS011;6692;50.710;7.180;2023-04-04T05:04:25;3.10;;;2.77;;
13250;SDS011;6692;50.710;7.180;2023-04-04T05:06:26;2.60;;;2.40;;
13250;SDS011;6692;50.710;7.180;2023-04-04T05:08:26;3.30;;;2.70;;
13250;SDS011;6692;50.710;7.180;2023-04-04T05:10:29;3.43;;;2.70;;
13250;SDS011;6692;50.710;7.180;2023-04-04T05:12:29;2.97;;;2.72;;
13250;SDS011;6692;50.710;7.180;2023-04-04T05:14:30;3.53;;;3.17;;
13250;SDS011;6692;50.710;7.180;2023-04-04T05:16:31;3.30;;;3.00;;
13250;SDS011;6692;50.710;7.180;2023-04-04T05:18:31;3.37;;;2.97;;
13250;SDS011;6692;50.710;7.180;2023-04-04T05:20:32;4.13;;;2.93;;
13250;SDS011;6692;50.710;7.180;2023-04-04T05:22:33;2.90;;;2.60;;
13250;SDS011;6692;50.710;7.180;2023-04-04T05:24:34;4.50;;;3.00;;
13250;SDS011;6692;50.710;7.180;2023-04-04T05:26:35;2.72;;;2.35;;
13250;SDS011;6692;50.710;7.180;2023-04-04T05:28:36;3.37;;;3.00;;
13250;SDS011;6692;50.710;7.180;2023-04-04T05:30:37;3.20;;;2.90;;
13250;SDS011;6692;50.710;7.180;2023-04-04T05:32:38;3.35;;;3.05;;
13250;SDS011;6692;50.710;7.180;2023-04-04T05:34:38;3.60;;;3.10;;
13250;SDS011;6692;50.710;7.180;2023-04-04T05:36:40;4.27;;;3.20;;
13250;SDS011;6692;50.710;7.180;2023-04-04T05:38:40;3.40;;;2.75;;
13250;SDS011;6692;50.710;7.180;2023-04-04T05:40:41;3.80;;;3.00;;
13250;SDS011;6692;50.710;7.180;2023-04-04T05:42:43;3.17;;;2.87;;
13250;SDS011;6692;50.710;7.180;2023-04-04T05:44:43;3.70;;;3.40;;
13250;SDS011;6692;50.710;7.180;2023-04-04T05:46:44;3.63;;;3.33;;
13250;SDS011;6692;50.710;7.180;2023-04-04T05:48:45;3.37;;;3.00;;
13250;SDS011;6692;50.710;7.180;2023-04-04T05:50:45;4.77;;;3.67;;
13250;SDS011;6692;50.710;7.180;2023-04-04T05:52:46;4.77;;;3.30;;
13250;SDS011;6692;50.710;7.180;2023-04-04T05:54:47;3.47;;;3.10;;
13250;SDS011;6692;50.710;7.180;2023-04-04T05:56:48;3.80;;;3.40;;
13250;SDS011;6692;50.710;7.180;2023-04-04T05:58:49;3.87;;;3.58;;
13250;SDS011;6692;50.710;7.180;2023-04-04T06:00:49;3.83;;;3.40;;
13250;SDS011;6692;50.710;7.180;2023-04-04T06:02:50;4.77;;;3.17;;
13250;SDS011;6692;50.710;7.180;2023-04-04T06:04:51;4.27;;;3.30;;
13250;SDS011;6692;50.710;7.180;2023-04-04T06:06:52;6.12;;;3.50;;
13250;SDS011;6692;50.710;7.180;2023-04-04T06:08:53;3.50;;;3.13;;
13250;SDS011;6692;50.710;7.180;2023-04-04T06:10:54;3.60;;;3.30;;
13250;SDS011;6692;50.710;7.180;2023-04-04T06:12:55;3.42;;;3.12;;
13250;SDS011;6692;50.710;7.180;2023-04-04T06:14:56;3.17;;;2.87;;
13250;SDS011;6692;50.710;7.180;2023-04-04T06:16:56;4.77;;;3.50;;
13250;SDS011;6692;50.710;7.180;2023-04-04T06:18:58;3.80;;;3.40;;
13250;SDS011;6692;50.710;7.180;2023-04-04T06:20:58;3.37;;;3.03;;
13250;SDS011;6692;50.710;7.180;2023-04-04T06:22:59;3.40;;;3.10;;
13250;SDS011;6692;50.710;7.180;2023-04-04T06:25:00;4.40;;;4.00;;
13250;SDS011;6692;50.710;7.180;2023-04-04T06:27:00;4.47;;;3.50;;
13250;SDS011;6692;50.710;7.180;2023-04-04T06:29:01;4.27;;;3.87;;
13250;SDS011;6692;50.710;7.180;2023-04-04T06:31:04;4.30;;;3.90;;
13250;SDS011;6692;50.710;7.180;2023-04-04T06:33:04;4.65;;;3.55;;
13250;SDS011;6692;50.710;7.180;2023-04-04T06:35:06;4.87;;;3.43;;
13250;SDS011;6692;50.710;7.180;2023-04-04T06:37:07;4.40;;;3.60;;
13250;SDS011;6692;50.710;7.180;2023-04-04T06:39:08;4.60;;;4.10;;
13250;SDS011;6692;50.710;7.180;2023-04-04T06:41:08;3.93;;;3.60;;
13250;SDS011;6692;50.710;7.180;2023-04-04T06:43:10;7.00;;;4.17;;
13250;SDS011;6692;50.710;7.180;2023-04-04T06:45:10;5.20;;;3.92;;
13250;SDS011;6692;50.710;7.180;2023-04-04T06:47:12;5.47;;;3.40;;
13250;SDS011;6692;50.710;7.180;2023-04-04T06:49:13;5.43;;;3.97;;
13250;SDS011;6692;50.710;7.180;2023-04-04T06:51:13;3.70;;;3.40;;
13250;SDS011;6692;50.710;7.180;2023-04-04T06:53:14;5.23;;;3.67;;
13250;SDS011;6692;50.710;7.180;2023-04-04T06:55:16;4.67;;;4.10;;
13250;SDS011;6692;50.710;7.180;2023-04-04T06:57:16;5.15;;;4.15;;
13250;SDS011;6692;50.710;7.180;2023-04-04T06:59:17;5.57;;;3.77;;
13250;SDS011;6692;50.710;7.180;2023-04-04T07:01:17;3.80;;;3.40;;
13250;SDS011;6692;50.710;7.180;2023-04-04T07:03:18;5.80;;;3.97;;
13250;SDS011;6692;50.710;7.180;2023-04-04T07:05:20;5.07;;;4.17;;
13250;SDS011;6692;50.710;7.180;2023-04-04T07:07:20;4.78;;;3.90;;
13250;SDS011;6692;50.710;7.180;2023-04-04T07:09:21;5.13;;;3.90;;
13250;SDS011;6692;50.710;7.180;2023-04-04T07:11:22;4.57;;;3.90;;
13250;SDS011;6692;50.710;7.180;2023-04-04T07:13:23;5.78;;;5.00;;
13250;SDS011;6692;50.710;7.180;2023-04-04T07:15:24;4.60;;;3.93;;
13250;SDS011;6692;50.710;7.180;2023-04-04T07:17:25;5.53;;;4.47;;
13250;SDS011;6692;50.710;7.180;2023-04-04T07:19:25;4.00;;;3.60;;
13250;SDS011;6692;50.710;7.180;2023-04-04T07:21:27;8.40;;;3.93;;
13250;SDS011;6692;50.710;7.180;2023-04-04T07:23:27;4.45;;;4.05;;
13250;SDS011;6692;50.710;7.180;2023-04-04T07:25:28;5.07;;;3.90;;
13250;SDS011;6692;50.710;7.180;2023-04-04T07:27:30;5.27;;;4.20;;
13250;SDS011;6692;50.710;7.180;2023-04-04T07:29:30;4.50;;;4.07;;
13250;SDS011;6692;50.710;7.180;2023-04-04T07:31:31;5.37;;;4.50;;
13250;SDS011;6692;50.710;7.180;2023-04-04T07:33:32;4.67;;;4.23;;
13250;SDS011;6692;50.710;7.180;2023-04-04T07:35:33;5.87;;;4.90;;
13250;SDS011;6692;50.710;7.180;2023-04-04T07:37:35;6.47;;;4.40;;
13250;SDS011;6692;50.710;7.180;2023-04-04T07:39:35;5.07;;;4.12;;
13250;SDS011;6692;50.710;7.180;2023-04-04T07:41:36;5.40;;;4.10;;
13250;SDS011;6692;50.710;7.180;2023-04-04T07:43:37;4.33;;;3.90;;
13250;SDS011;6692;50.710;7.180;2023-04-04T07:45:37;4.80;;;4.23;;
13250;SDS011;6692;50.710;7.180;2023-04-04T07:47:42;4.87;;;4.13;;
13250;SDS011;6692;50.710;7.180;2023-04-04T07:49:42;4.57;;;4.18;;
13250;SDS011;6692;50.710;7.180;2023-04-04T07:51:43;5.73;;;3.90;;
13250;SDS011;6692;50.710;7.180;2023-04-04T07:53:44;4.55;;;3.67;;
13250;SDS011;6692;50.710;7.180;2023-04-04T07:55:44;4.07;;;3.60;;
13250;SDS011;6692;50.710;7.180;2023-04-04T07:57:45;4.90;;;4.40;;
13250;SDS011;6692;50.710;7.180;2023-04-04T07:59:46;5.03;;;3.90;;
13250;SDS011;6692;50.710;7.180;2023-04-04T08:01:47;3.95;;;3.50;;
13250;SDS011;6692;50.710;7.180;2023-04-04T08:03:48;4.77;;;4.00;;
13250;SDS011;6692;50.710;7.180;2023-04-04T08:05:49;4.87;;;3.60;;
13250;SDS011;6692;50.710;7.180;2023-04-04T08:07:49;3.93;;;3.57;;
13250;SDS011;6692;50.710;7.180;2023-04-04T08:09:51;4.63;;;3.53;;
13250;SDS011;6692;50.710;7.180;2023-04-04T08:11:51;4.85;;;4.45;;
13250;SDS011;6692;50.710;7.180;2023-04-04T08:13:52;5.30;;;4.20;;
13250;SDS011;6692;50.710;7.180;2023-04-04T08:15:53;5.03;;;4.53;;
13250;SDS011;6692;50.710;7.180;2023-04-04T08:17:54;5.28;;;4.07;;
13250;SDS011;6692;50.710;7.180;2023-04-04T08:19:55;4.93;;;4.53;;
13250;SDS011;6692;50.710;7.180;2023-04-04T08:21:57;6.60;;;5.93;;
13250;SDS011;6692;50.710;7.180;2023-04-04T08:23:57;8.75;;;5.80;;
13250;SDS011;6692;50.710;7.180;2023-04-04T08:25:58;5.93;;;5.30;;
13250;SDS011;6692;50.710;7.180;2023-04-04T08:27:59;6.17;;;5.57;;
13250;SDS011;6692;50.710;7.180;2023-04-04T08:30:00;8.25;;;6.05;;
13250;SDS011;6692;50.710;7.180;2023-04-04T08:32:01;7.47;;;6.77;;
13250;SDS011;6692;50.710;7.180;2023-04-04T08:34:02;7.27;;;6.57;;
13250;SDS011;6692;50.710;7.180;2023-04-04T08:36:02;6.27;;;5.67;;
13250;SDS011;6692;50.710;7.180;2023-04-04T08:38:03;7.00;;;6.40;;
13250;SDS011;6692;50.710;7.180;2023-04-04T08:40:04;7.23;;;6.53;;
13250;SDS011;6692;50.710;7.180;2023-04-04T08:42:06;6.25;;;5.75;;
13250;SDS011;6692;50.710;7.180;2023-04-04T08:44:07;6.60;;;6.00;;
13250;SDS011;6692;50.710;7.180;2023-04-04T08:46:08;6.60;;;6.00;;
13250;SDS011;6692;50.710;7.180;2023-04-04T08:48:10;6.77;;;6.07;;
13250;SDS011;6692;50.710;7.180;2023-04-04T08:50:10;6.78;;;6.18;;
13250;SDS011;6692;50.710;7.180;2023-04-04T08:52:11;7.57;;;6.80;;
13250;SDS011;6692;50.710;7.180;2023-04-04T08:54:11;7.67;;;6.97;;
13250;SDS011;6692;50.710;7.180;2023-04-04T08:56:12;7.27;;;6.53;;
13250;SDS011;6692;50.710;7.180;2023-04-04T08:58:13;8.60;;;7.70;;
13250;SDS011;6692;50.710;7.180;2023-04-04T09:00:13;9.37;;;8.33;;
13250;SDS011;6692;50.710;7.180;2023-04-04T09:02:17;8.17;;;7.37;;
13250;SDS011;6692;50.710;7.180;2023-04-04T09:04:16;8.17;;;7.30;;
13250;SDS011;6692;50.710;7.180;2023-04-04T09:06:16;7.40;;;6.70;;
13250;SDS011;6692;50.710;7.180;2023-04-04T09:08:17;9.17;;;8.27;;
13250;SDS011;6692;50.710;7.180;2023-04-04T09:10:18;8.60;;;7.80;;
13250;SDS011;6692;50.710;7.180;2023-04-04T09:12:19;8.80;;;7.90;;
13250;SDS011;6692;50.710;7.180;2023-04-04T09:14:20;8.07;;;7.37;;
13250;SDS011;6692;50.710;7.180;2023-04-04T09:16:21;8.73;;;7.93;;
13250;SDS011;6692;50.710;7.180;2023-04-04T09:18:21;9.03;;;8.13;;
13250;SDS011;6692;50.710;7.180;2023-04-04T09:22:34;10.52;;;9.43;;
13250;SDS011;6692;50.710;7.180;2023-04-04T09:24:37;9.93;;;9.03;;
13250;SDS011;6692;50.710;7.180;2023-04-04T09:28:51;10.07;;;9.07;;
13250;SDS011;6692;50.710;7.180;2023-04-04T09:30:48;10.67;;;9.53;;
13250;SDS011;6692;50.710;7.180;2023-04-04T09:32:48;10.93;;;9.83;;
13250;SDS011;6692;50.710;7.180;2023-04-04T09:34:49;10.63;;;9.53;;
13250;SDS011;6692;50.710;7.180;2023-04-04T09:36:50;11.10;;;9.63;;
13250;SDS011;6692;50.710;7.180;2023-04-04T09:38:51;11.88;;;9.35;;
13250;SDS011;6692;50.710;7.180;2023-04-04T09:40:53;8.57;;;7.77;;
13250;SDS011;6692;50.710;7.180;2023-04-04T09:42:53;8.17;;;7.33;;
13250;SDS011;6692;50.710;7.180;2023-04-04T09:44:54;9.17;;;8.23;;
13250;SDS011;6692;50.710;7.180;2023-04-04T09:47:05;8.60;;;7.70;;
13250;SDS011;6692;50.710;7.180;2023-04-04T09:48:56;12.13;;;9.97;;
13250;SDS011;6692;50.710;7.180;2023-04-04T09:50:57;9.57;;;8.60;;
13250;SDS011;6692;50.710;7.180;2023-04-04T09:52:59;12.03;;;9.00;;
13250;SDS011;6692;50.710;7.180;2023-04-04T09:55:00;10.23;;;8.60;;
13250;SDS011;6692;50.710;7.180;2023-04-04T09:57:00;8.93;;;8.03;;
13250;SDS011;6692;50.710;7.180;2023-04-04T09:59:01;9.57;;;8.67;;
13250;SDS011;6692;50.710;7.180;2023-04-04T10:01:03;8.90;;;7.60;;
13250;SDS011;6692;50.710;7.180;2023-04-04T10:03:03;8.93;;;8.03;;
13250;SDS011;6692;50.710;7.180;2023-04-04T10:05:03;9.47;;;7.93;;
13250;SDS011;6692;50.710;7.180;2023-04-04T10:07:05;9.40;;;8.37;;
13250;SDS011;6692;50.710;7.180;2023-04-04T10:09:06;9.57;;;7.80;;
13250;SDS011;6692;50.710;7.180;2023-04-04T10:11:07;9.07;;;8.20;;
13250;SDS011;6692;50.710;7.180;2023-04-04T10:13:09;9.50;;;8.60;;
13250;SDS011;6692;50.710;7.180;2023-04-04T10:15:08;8.77;;;7.17;;
13250;SDS011;6692;50.710;7.180;2023-04-04T10:17:10;9.00;;;8.10;;
13250;SDS011;6692;50.710;7.180;2023-04-04T10:19:11;8.60;;;7.73;;
13250;SDS011;6692;50.710;7.180;2023-04-04T10:21:12;10.60;;;8.27;;
13250;SDS011;6692;50.710;7.180;2023-04-04T10:23:13;9.33;;;8.40;;
13250;SDS011;6692;50.710;7.180;2023-04-04T10:25:13;9.60;;;8.57;;
13250;SDS011;6692;50.710;7.180;2023-04-04T10:27:14;8.87;;;7.77;;
13250;SDS011;6692;50.710;7.180;2023-04-04T10:29:15;9.00;;;8.13;;
13250;SDS011;6692;50.710;7.180;2023-04-04T10:31:21;9.90;;;8.90;;
13250;SDS011;6692;50.710;7.180;2023-04-04T10:33:26;9.97;;;8.97;;
13250;SDS011;6692;50.710;7.180;2023-04-04T10:35:26;10.10;;;9.10;;
13250;SDS011;6692;50.710;7.180;2023-04-04T10:37:30;9.23;;;8.33;;
13250;SDS011;6692;50.710;7.180;2023-04-04T10:39:30;9.77;;;8.17;;
13250;SDS011;6692;50.710;7.180;2023-04-04T10:41:29;9.13;;;8.23;;
13250;SDS011;6692;50.710;7.180;2023-04-04T10:43:31;9.17;;;8.27;;
13250;SDS011;6692;50.710;7.180;2023-04-04T10:45:30;8.23;;;7.43;;
13250;SDS011;6692;50.710;7.180;2023-04-04T10:47:31;10.43;;;8.93;;
13250;SDS011;6692;50.710;7.180;2023-04-04T10:49:32;9.40;;;7.60;;
13250;SDS011;6692;50.710;7.180;2023-04-04T10:51:34;8.70;;;7.83;;
13250;SDS011;6692;50.710;7.180;2023-04-04T10:53:35;7.83;;;6.97;;
13250;SDS011;6692;50.710;7.180;2023-04-04T10:55:35;8.73;;;7.67;;
13250;SDS011;6692;50.710;7.180;2023-04-04T10:57:37;8.60;;;7.73;;
13250;SDS011;6692;50.710;7.180;2023-04-04T10:59:54;9.17;;;8.27;;
13250;SDS011;6692;50.710;7.180;2023-04-04T11:06:13;9.10;;;8.20;;
13250;SDS011;6692;50.710;7.180;2023-04-04T11:08:08;9.30;;;8.50;;
13250;SDS011;6692;50.710;7.180;2023-04-04T11:10:12;9.20;;;8.03;;
13250;SDS011;6692;50.710;7.180;2023-04-04T11:12:13;9.97;;;8.83;;
13250;SDS011;6692;50.710;7.180;2023-04-04T11:14:15;8.90;;;8.00;;
13250;SDS011;6692;50.710;7.180;2023-04-04T11:16:16;8.20;;;7.50;;
13250;SDS011;6692;50.710;7.180;2023-04-04T11:18:18;9.17;;;8.27;;
13250;SDS011;6692;50.710;7.180;2023-04-04T11:20:19;8.87;;;7.97;;
13250;SDS011;6692;50.710;7.180;2023-04-04T11:22:21;8.80;;;7.97;;
13250;SDS011;6692;50.710;7.180;2023-04-04T11:24:19;9.20;;;8.40;;
13250;SDS011;6692;50.710;7.180;2023-04-04T11:28:43;9.17;;;8.03;;
13250;SDS011;6692;50.710;7.180;2023-04-04T11:30:44;8.53;;;7.70;;
13250;SDS011;6692;50.710;7.180;2023-04-04T11:32:48;10.00;;;9.13;;
13250;SDS011;6692;50.710;7.180;2023-04-04T11:34:48;8.73;;;7.60;;
13250;SDS011;6692;50.710;7.180;2023-04-04T11:36:50;8.57;;;7.83;;
13250;SDS011;6692;50.710;7.180;2023-04-04T11:38:50;8.63;;;7.90;;
13250;SDS011;6692;50.710;7.180;2023-04-04T11:40:51;9.53;;;8.73;;
13250;SDS011;6692;50.710;7.180;2023-04-04T11:42:51;8.97;;;8.17;;
13250;SDS011;6692;50.710;7.180;2023-04-04T11:45:00;9.30;;;8.37;;
13250;SDS011;6692;50.710;7.180;2023-04-04T11:47:11;9.17;;;8.33;;
13250;SDS011;6692;50.710;7.180;2023-04-04T11:49:12;7.87;;;7.07;;
13250;SDS011;6692;50.710;7.180;2023-04-04T11:51:12;7.63;;;6.80;;
13250;SDS011;6692;50.710;7.180;2023-04-04T11:53:13;7.90;;;7.10;;
13250;SDS011;6692;50.710;7.180;2023-04-04T11:55:14;8.27;;;7.57;;
13250;SDS011;6692;50.710;7.180;2023-04-04T11:57:16;9.77;;;8.87;;
13250;SDS011;6692;50.710;7.180;2023-04-04T11:59:17;9.20;;;8.30;;
13250;SDS011;6692;50.710;7.180;2023-04-04T12:01:17;8.33;;;7.53;;
13250;SDS011;6692;50.710;7.180;2023-04-04T12:03:18;8.43;;;7.67;;
13250;SDS011;6692;50.710;7.180;2023-04-04T12:05:19;8.27;;;7.47;;
13250;SDS011;6692;50.710;7.180;2023-04-04T12:07:21;9.90;;;9.10;;
13250;SDS011;6692;50.710;7.180;2023-04-04T12:09:22;7.80;;;7.20;;
13250;SDS011;6692;50.710;7.180;2023-04-04T12:11:23;10.80;;;10.00;;
13250;SDS011;6692;50.710;7.180;2023-04-04T12:13:28;8.33;;;7.53;;
13250;SDS011;6692;50.710;7.180;2023-04-04T12:15:26;7.00;;;6.37;;
13250;SDS011;6692;50.710;7.180;2023-04-04T12:17:28;8.60;;;7.87;;
13250;SDS011;6692;50.710;7.180;2023-04-04T12:19:26;9.87;;;9.07;;
13250;SDS011;6692;50.710;7.180;2023-04-04T12:21:26;8.70;;;8.00;;
13250;SDS011;6692;50.710;7.180;2023-04-04T12:23:32;8.43;;;7.60;;
13250;SDS011;6692;50.710;7.180;2023-04-04T12:25:33;9.17;;;8.47;;
13250;SDS011;6692;50.710;7.180;2023-04-04T12:27:33;9.00;;;8.37;;
13250;SDS011;6692;50.710;7.180;2023-04-04T12:29:34;9.07;;;8.37;;
13250;SDS011;6692;50.710;7.180;2023-04-04T12:31:36;9.10;;;8.30;;